createdAt,value
2023-05-09T00:00:15.299Z,98016.38
2023-05-09T00:02:46.195Z,98018.72
2023-05-09T00:05:15.161Z,98018.03
2023-05-09T00:07:43.937Z,98012.03
2023-05-09T00:10:12.448Z,98014.22
2023-05-09T00:12:41.743Z,98011.03
2023-05-09T00:15:13.165Z,98005.22
2023-05-09T00:17:41.953Z,98000.38
2023-05-09T00:20:12.579Z,97993.69
2023-05-09T00:22:42.113Z,97995.72
2023-05-09T00:25:12.672Z,98001.38
2023-05-09T00:27:44.101Z,97989.19
2023-05-09T00:30:14.355Z,97992.00
2023-05-09T00:32:45.648Z,97992.19
2023-05-09T00:35:14.133Z,97991.69
2023-05-09T00:37:42.715Z,97996.53
2023-05-09T00:40:12.190Z,97991.34
2023-05-09T00:42:40.836Z,97980.16
2023-05-09T00:45:10.936Z,97990.03
2023-05-09T00:47:40.886Z,97987.38
2023-05-09T00:50:11.189Z,97975.00
2023-05-09T00:52:40.507Z,97979.84
2023-05-09T00:55:09.926Z,97979.84
2023-05-09T00:57:38.340Z,97976.50
2023-05-09T01:00:13.077Z,97973.00
2023-05-09T01:02:44.797Z,97965.31
2023-05-09T01:05:13.834Z,97976.00
2023-05-09T01:07:52.107Z,97969.16
2023-05-09T01:10:33.181Z,97962.50
2023-05-09T01:13:07.212Z,97972.16
2023-05-09T01:15:41.347Z,97966.19
2023-05-09T01:18:18.789Z,97956.47
2023-05-09T01:20:54.172Z,97962.81
2023-05-09T01:24:02.134Z,97959.47
2023-05-09T01:26:46.124Z,97964.16
2023-05-09T01:29:34.810Z,97964.50
2023-05-09T01:32:08.893Z,97961.66
2023-05-09T01:34:40.046Z,97958.00
2023-05-09T01:37:09.643Z,97951.97
2023-05-09T01:39:42.461Z,97957.31
2023-05-09T01:42:14.143Z,97947.63
2023-05-09T01:44:47.026Z,97953.16
2023-05-09T01:47:17.459Z,97957.31
2023-05-09T01:49:47.229Z,97954.63
2023-05-09T01:52:18.358Z,97948.50
2023-05-09T01:54:47.821Z,97951.31
2023-05-09T01:57:19.522Z,97949.47
2023-05-09T01:59:50.956Z,97953.16
2023-05-09T02:02:19.919Z,97947.81
2023-05-09T02:04:49.636Z,97954.97
2023-05-09T02:07:18.830Z,97947.97
2023-05-09T02:09:48.787Z,97941.31
2023-05-09T02:12:17.220Z,97933.47
2023-05-09T02:14:45.708Z,97936.94
2023-05-09T02:17:17.086Z,97933.47
2023-05-09T02:19:45.629Z,97937.28
2023-05-09T02:22:14.776Z,97928.78
2023-05-09T02:24:44.980Z,97935.97
2023-05-09T02:27:14.336Z,97932.59
2023-05-09T02:29:46.648Z,97933.63
2023-05-09T02:32:21.363Z,97932.91
2023-05-09T02:34:52.466Z,97924.25
2023-05-09T02:37:22.085Z,97933.91
2023-05-09T02:39:50.411Z,97924.25
2023-05-09T02:42:25.465Z,97926.06
2023-05-09T02:44:53.945Z,97926.06
2023-05-09T02:47:24.016Z,97937.44
2023-05-09T02:49:52.521Z,97941.25
2023-05-09T02:52:21.438Z,97922.41
2023-05-09T02:54:49.834Z,97934.91
2023-05-09T02:57:18.177Z,97930.56
2023-05-09T02:59:46.503Z,97920.22
2023-05-09T03:02:14.988Z,97923.22
2023-05-09T03:04:44.841Z,97918.06
2023-05-09T03:07:13.338Z,97913.88
2023-05-09T03:09:41.653Z,97909.41
2023-05-09T03:12:10.290Z,97907.53
2023-05-09T03:14:41.632Z,97913.88
2023-05-09T03:17:09.941Z,97909.41
2023-05-09T03:19:38.351Z,97909.72
2023-05-09T03:22:08.039Z,97916.72
2023-05-09T03:24:36.971Z,97908.88
2023-05-09T03:27:05.374Z,97908.25
2023-05-09T03:29:33.742Z,97902.06
2023-05-09T03:32:02.175Z,97905.91
2023-05-09T03:34:30.540Z,97903.41
2023-05-09T03:36:59.189Z,97897.53
2023-05-09T03:39:28.918Z,97902.88
2023-05-09T03:41:57.337Z,97896.88
2023-05-09T03:44:25.723Z,97899.69
2023-05-09T03:46:56.263Z,97894.69
2023-05-09T03:49:24.609Z,97890.38
2023-05-09T03:51:53.112Z,97895.88
2023-05-09T03:54:24.277Z,97895.00
2023-05-09T03:56:54.015Z,97897.84
2023-05-09T03:59:22.352Z,97892.03
2023-05-09T04:01:50.903Z,97894.53
2023-05-09T04:04:19.362Z,97892.03
2023-05-09T04:06:48.504Z,97901.84
2023-05-09T04:09:16.845Z,97900.19
2023-05-09T04:11:45.274Z,97909.84
2023-05-09T04:14:15.174Z,97912.50
2023-05-09T04:16:44.007Z,97911.00
2023-05-09T04:19:12.386Z,97916.84
2023-05-09T04:21:40.772Z,97910.53
2023-05-09T04:24:11.677Z,97919.81
2023-05-09T04:26:40.091Z,97920.66
2023-05-09T04:29:08.385Z,97923.34
2023-05-09T04:31:38.197Z,97912.84
2023-05-09T04:34:09.508Z,97919.81
2023-05-09T04:36:41.087Z,97917.16
2023-05-09T04:39:10.499Z,97917.16
2023-05-09T04:41:40.558Z,97911.19
2023-05-09T04:44:09.054Z,97913.84
2023-05-09T04:46:38.945Z,97910.50
2023-05-09T04:49:10.098Z,97912.16
2023-05-09T04:51:38.407Z,97908.69
2023-05-09T04:54:06.817Z,97912.47
2023-05-09T04:56:35.142Z,97905.50
2023-05-09T04:59:03.731Z,97912.63
2023-05-09T05:01:32.040Z,97912.81
2023-05-09T05:04:02.129Z,97915.63
2023-05-09T05:06:31.843Z,97908.63
2023-05-09T05:09:00.209Z,97909.81
2023-05-09T05:11:28.573Z,97906.47
2023-05-09T05:13:56.917Z,97904.81
2023-05-09T05:16:25.385Z,97908.47
2023-05-09T05:18:53.705Z,97897.81
2023-05-09T05:21:23.457Z,97898.13
2023-05-09T05:23:51.760Z,97890.97
2023-05-09T05:26:20.163Z,97900.47
2023-05-09T05:28:48.501Z,97901.28
2023-05-09T05:31:16.827Z,97900.47
2023-05-09T05:33:45.167Z,97900.47
2023-05-09T05:36:13.611Z,97904.63
2023-05-09T05:38:43.311Z,97902.78
2023-05-09T05:41:15.686Z,97897.63
2023-05-09T05:43:44.104Z,97897.47
2023-05-09T05:46:12.496Z,97899.97
2023-05-09T05:48:40.931Z,97890.47
2023-05-09T05:51:09.366Z,97894.78
2023-05-09T05:53:37.673Z,97888.50
2023-05-09T05:56:08.152Z,97895.47
2023-05-09T05:58:36.525Z,97886.31
2023-05-09T06:01:05.171Z,97889.34
2023-05-09T06:03:33.759Z,97887.66
2023-05-09T06:06:02.602Z,97885.34
2023-05-09T06:08:31.039Z,97878.19
2023-05-09T06:10:59.453Z,97866.88
2023-05-09T06:13:29.471Z,97870.72
2023-05-09T06:16:07.777Z,97861.38
2023-05-09T06:18:44.141Z,97868.53
2023-05-09T06:21:12.532Z,97871.56
2023-05-09T06:23:51.028Z,97863.06
2023-05-09T06:26:27.043Z,97863.91
2023-05-09T06:28:57.281Z,97858.94
2023-05-09T06:31:25.901Z,97854.22
2023-05-09T06:33:54.535Z,97854.06
2023-05-09T06:36:23.054Z,97849.53
2023-05-09T06:38:51.382Z,97848.53
2023-05-09T06:41:19.809Z,97844.00
2023-05-09T06:43:49.873Z,97849.16
2023-05-09T06:46:19.810Z,97841.09
2023-05-09T06:48:48.174Z,97837.91
2023-05-09T06:51:16.574Z,97833.34
2023-05-09T06:53:44.995Z,97834.34
2023-05-09T06:56:13.965Z,97834.50
2023-05-09T06:58:42.462Z,97833.63
2023-05-09T07:01:10.783Z,97825.28
2023-05-09T07:03:40.781Z,97828.25
2023-05-09T07:06:09.453Z,97830.22
2023-05-09T07:08:37.825Z,97837.03
2023-05-09T07:11:06.682Z,97837.31
2023-05-09T07:13:35.160Z,97843.84
2023-05-09T07:16:04.121Z,97840.66
2023-05-09T07:18:32.518Z,97829.28
2023-05-09T07:21:02.835Z,97829.66
2023-05-09T07:23:31.170Z,97829.97
2023-05-09T07:25:59.932Z,97818.38
2023-05-09T07:28:28.376Z,97819.75
2023-05-09T07:30:57.670Z,97811.66
2023-05-09T07:33:26.291Z,97815.31
2023-05-09T07:35:54.684Z,97814.06
2023-05-09T07:38:24.568Z,97817.94
2023-05-09T07:40:53.333Z,97806.50
2023-05-09T07:43:21.714Z,97802.19
2023-05-09T07:45:50.128Z,97792.34
2023-05-09T07:48:21.477Z,97794.69
2023-05-09T07:50:49.940Z,97791.63
2023-05-09T07:53:18.324Z,97793.16
2023-05-09T07:55:50.297Z,97788.03
2023-05-09T07:58:18.660Z,97789.22
2023-05-09T08:00:47.075Z,97778.47
2023-05-09T08:03:15.799Z,97768.72
2023-05-09T08:05:44.316Z,97772.75
2023-05-09T08:08:12.639Z,97768.84
2023-05-09T08:10:40.943Z,97761.13
2023-05-09T08:13:10.622Z,97762.03
2023-05-09T08:15:38.995Z,97753.47
2023-05-09T08:18:07.529Z,97752.75
2023-05-09T08:20:36.274Z,97748.94
2023-05-09T08:23:04.669Z,97742.00
2023-05-09T08:25:33.358Z,97740.22
2023-05-09T08:28:01.723Z,97735.81
2023-05-09T08:30:31.484Z,97734.63
2023-05-09T08:32:59.826Z,97736.38
2023-05-09T08:35:28.124Z,97727.34
2023-05-09T08:37:56.462Z,97717.88
2023-05-09T08:40:24.955Z,97715.44
2023-05-09T08:42:53.951Z,97714.63
2023-05-09T08:45:31.880Z,97706.81
2023-05-09T08:48:01.060Z,97702.25
2023-05-09T08:50:30.318Z,97692.75
2023-05-09T08:52:58.798Z,97694.41
2023-05-09T08:55:27.710Z,97696.91
2023-05-09T08:57:56.197Z,97694.84
2023-05-09T09:00:25.769Z,97704.75
2023-05-09T09:02:56.449Z,97701.16
2023-05-09T09:05:40.808Z,97700.94
2023-05-09T09:08:11.969Z,97690.16
2023-05-09T09:10:43.463Z,97693.69
2023-05-09T09:13:14.108Z,97695.13
2023-05-09T09:15:45.218Z,97692.03
2023-05-09T09:18:31.369Z,97691.78
2023-05-09T09:21:06.229Z,97686.38
2023-05-09T09:23:34.803Z,97675.09
2023-05-09T09:26:04.956Z,97675.00
2023-05-09T09:28:33.457Z,97663.13
2023-05-09T09:31:01.956Z,97663.72
2023-05-09T09:33:31.768Z,97647.50
2023-05-09T09:36:00.230Z,97651.16
2023-05-09T09:38:28.519Z,97645.72
2023-05-09T09:40:58.841Z,97637.84
2023-05-09T09:43:30.952Z,97631.16
2023-05-09T09:46:02.453Z,97636.13
2023-05-09T09:48:35.035Z,97627.16
2023-05-09T09:51:10.228Z,97628.53
2023-05-09T09:53:41.823Z,97611.38
2023-05-09T09:56:10.688Z,97614.97
2023-05-09T09:58:39.010Z,97616.53
2023-05-09T10:01:08.220Z,97612.88
2023-05-09T10:03:39.832Z,97613.19
2023-05-09T10:06:12.689Z,97601.81
2023-05-09T10:08:41.658Z,97599.44
2023-05-09T10:11:11.293Z,97593.94
2023-05-09T10:13:39.993Z,97593.59
2023-05-09T10:16:10.924Z,97589.47
2023-05-09T10:18:43.491Z,97584.81
2023-05-09T10:21:16.076Z,97583.69
2023-05-09T10:23:49.895Z,97571.69
2023-05-09T10:26:27.320Z,97571.72
2023-05-09T10:28:58.637Z,97566.56
2023-05-09T10:31:31.474Z,97557.69
2023-05-09T10:34:05.760Z,97558.16
2023-05-09T10:36:34.524Z,97556.38
2023-05-09T10:39:03.385Z,97542.38
2023-05-09T10:41:32.727Z,97545.81
2023-05-09T10:44:01.745Z,97550.28
2023-05-09T10:46:30.496Z,97543.09
2023-05-09T10:49:01.338Z,97540.25
2023-05-09T10:51:29.886Z,97540.97
2023-05-09T10:53:58.222Z,97537.09
2023-05-09T10:56:30.688Z,97528.25
2023-05-09T10:58:59.335Z,97534.25
2023-05-09T11:01:35.047Z,97514.09
2023-05-09T11:04:12.724Z,97508.25
2023-05-09T11:06:51.127Z,97506.94
2023-05-09T11:09:33.116Z,97503.88
2023-05-09T11:12:13.469Z,97493.69
2023-05-09T11:14:44.578Z,97484.84
2023-05-09T11:17:14.843Z,97485.44
2023-05-09T11:20:06.557Z,97477.91
2023-05-09T11:22:42.333Z,97479.91
2023-05-09T11:25:13.150Z,97469.94
2023-05-09T11:27:48.127Z,97470.38
2023-05-09T11:30:18.799Z,97468.25
2023-05-09T11:32:51.532Z,97465.59
2023-05-09T11:35:26.660Z,97460.28
2023-05-09T11:38:03.020Z,97463.88
2023-05-09T11:40:32.525Z,97457.72
2023-05-09T11:43:02.315Z,97446.38
2023-05-09T11:45:32.904Z,97453.28
2023-05-09T11:48:02.146Z,97443.03
2023-05-09T11:50:32.164Z,97443.69
2023-05-09T11:53:00.469Z,97442.06
2023-05-09T11:55:30.220Z,97433.19
2023-05-09T11:57:59.897Z,97418.84
2023-05-09T12:00:28.620Z,97423.28
2023-05-09T12:02:57.121Z,97412.44
2023-05-09T12:05:25.523Z,97410.28
2023-05-09T12:07:55.233Z,97402.13
2023-05-09T12:10:24.629Z,97395.06
2023-05-09T12:12:55.693Z,97386.66
2023-05-09T12:15:24.752Z,97396.78
2023-05-09T12:18:04.104Z,97387.66
2023-05-09T12:20:43.152Z,97382.22
2023-05-09T12:23:14.378Z,97374.91
2023-05-09T12:25:49.890Z,97360.25
2023-05-09T12:28:18.917Z,97356.78
2023-05-09T12:30:47.469Z,97363.69
2023-05-09T12:33:16.347Z,97349.03
2023-05-09T12:35:48.355Z,97348.28
2023-05-09T12:38:23.274Z,97344.00
2023-05-09T12:41:03.480Z,97337.22
2023-05-09T12:43:33.905Z,97338.09
2023-05-09T12:46:03.907Z,97328.41
2023-05-09T12:48:38.256Z,97332.25
2023-05-09T12:51:07.220Z,97316.91
2023-05-09T12:53:40.399Z,97317.22
2023-05-09T12:56:15.913Z,97323.16
2023-05-09T12:58:51.116Z,97314.50
2023-05-09T13:01:19.995Z,97313.47
2023-05-09T13:03:53.523Z,97311.06
2023-05-09T13:06:24.148Z,97305.13
2023-05-09T13:09:15.514Z,97298.06
2023-05-09T13:11:43.847Z,97284.75
2023-05-09T13:14:12.388Z,97287.69
2023-05-09T13:16:41.141Z,97285.75
2023-05-09T13:19:09.811Z,97283.38
2023-05-09T13:21:38.356Z,97272.16
2023-05-09T13:24:07.757Z,97270.19
2023-05-09T13:26:37.446Z,97266.41
2023-05-09T13:29:05.881Z,97275.38
2023-05-09T13:31:34.359Z,97265.34
2023-05-09T13:34:02.598Z,97262.66
2023-05-09T13:36:32.573Z,97255.59
2023-05-09T13:39:00.882Z,97248.81
2023-05-09T13:41:31.836Z,97244.22
2023-05-09T13:44:01.548Z,97239.66
2023-05-09T13:46:29.948Z,97239.09
2023-05-09T13:48:58.348Z,97236.38
2023-05-09T13:51:27.297Z,97232.94
2023-05-09T13:53:55.675Z,97233.78
2023-05-09T13:56:23.988Z,97217.50
2023-05-09T13:58:52.337Z,97220.63
2023-05-09T14:01:25.146Z,97218.75
2023-05-09T14:03:54.159Z,97217.91
2023-05-09T14:06:22.565Z,97216.53
2023-05-09T14:08:50.955Z,97206.50
2023-05-09T14:11:19.254Z,97212.19
2023-05-09T14:13:47.589Z,97203.72
2023-05-09T14:16:16.006Z,97197.78
2023-05-09T14:18:45.793Z,97199.91
2023-05-09T14:21:14.248Z,97193.44
2023-05-09T14:23:43.562Z,97189.63
2023-05-09T14:26:11.909Z,97186.91
2023-05-09T14:28:40.202Z,97189.88
2023-05-09T14:31:08.548Z,97188.28
2023-05-09T14:33:36.902Z,97178.75
2023-05-09T14:36:07.550Z,97170.59
2023-05-09T14:38:36.894Z,97176.88
2023-05-09T14:41:06.990Z,97171.94
2023-05-09T14:43:35.294Z,97166.00
2023-05-09T14:46:03.745Z,97159.72
2023-05-09T14:48:32.216Z,97153.69
2023-05-09T14:51:00.718Z,97153.97
2023-05-09T14:53:30.792Z,97142.78
2023-05-09T14:55:59.181Z,97145.34
2023-05-09T14:58:30.914Z,97140.94
2023-05-09T15:00:59.334Z,97143.88
2023-05-09T15:03:30.838Z,97135.91
2023-05-09T15:05:59.644Z,97137.00
2023-05-09T15:08:29.320Z,97130.69
2023-05-09T15:10:57.853Z,97132.34
2023-05-09T15:13:26.304Z,97119.56
2023-05-09T15:15:54.763Z,97118.78
2023-05-09T15:18:28.621Z,97113.94
2023-05-09T15:20:57.028Z,97109.63
2023-05-09T15:23:25.364Z,97108.00
2023-05-09T15:26:01.336Z,97105.03
2023-05-09T15:28:29.718Z,97114.03
2023-05-09T15:30:59.944Z,97112.66
2023-05-09T15:33:28.558Z,97111.53
2023-05-09T15:36:00.096Z,97102.31
2023-05-09T15:38:31.399Z,97102.81
2023-05-09T15:41:01.127Z,97100.94
2023-05-09T15:43:29.452Z,97099.28
2023-05-09T15:45:59.994Z,97092.72
2023-05-09T15:48:28.790Z,97090.25
2023-05-09T15:50:57.088Z,97089.44
2023-05-09T15:53:27.570Z,97084.25
2023-05-09T15:55:56.884Z,97085.34
2023-05-09T15:58:27.016Z,97088.53
2023-05-09T16:00:55.908Z,97080.09
2023-05-09T16:03:25.036Z,97070.47
2023-05-09T16:05:59.190Z,97080.38
2023-05-09T16:08:27.625Z,97072.50
2023-05-09T16:10:56.021Z,97064.28
2023-05-09T16:13:24.466Z,97047.97
2023-05-09T16:15:54.477Z,97045.53
2023-05-09T16:18:22.829Z,97041.94
2023-05-09T16:20:51.206Z,97055.75
2023-05-09T16:23:21.108Z,97036.19
2023-05-09T16:25:50.677Z,97036.63
2023-05-09T16:28:23.478Z,97034.16
2023-05-09T16:30:53.840Z,97018.84
2023-05-09T16:33:22.186Z,97031.56
2023-05-09T16:35:50.525Z,97025.44
2023-05-09T16:38:19.020Z,97024.25
2023-05-09T16:40:47.381Z,97018.53
2023-05-09T16:43:16.439Z,97012.94
2023-05-09T16:45:46.706Z,97010.97
2023-05-09T16:48:18.720Z,97014.44
2023-05-09T16:50:48.031Z,97010.03
2023-05-09T16:53:18.900Z,97007.22
2023-05-09T16:55:49.846Z,97007.06
2023-05-09T16:58:18.486Z,96999.47
2023-05-09T17:00:46.934Z,97007.66
2023-05-09T17:03:16.758Z,97011.63
2023-05-09T17:05:45.120Z,97013.53
2023-05-09T17:08:13.525Z,97005.81
2023-05-09T17:10:42.286Z,97008.66
2023-05-09T17:13:11.093Z,97015.06
2023-05-09T17:15:39.475Z,97014.13
2023-05-09T17:18:07.918Z,97014.53
2023-05-09T17:20:37.736Z,97003.88
2023-05-09T17:23:06.148Z,97001.88
2023-05-09T17:25:34.570Z,96998.03
2023-05-09T17:28:03.321Z,97000.31
2023-05-09T17:30:32.068Z,96993.75
2023-05-09T17:33:00.596Z,96992.59
2023-05-09T17:35:30.401Z,96989.78
2023-05-09T17:38:00.270Z,96991.44
2023-05-09T17:40:28.879Z,96985.13
2023-05-09T17:42:57.273Z,96988.22
2023-05-09T17:45:25.618Z,96984.34
2023-05-09T17:47:54.129Z,96977.78
2023-05-09T17:50:22.890Z,96980.63
2023-05-09T17:52:51.622Z,96975.47
2023-05-09T17:55:24.978Z,96969.16
2023-05-09T17:57:53.681Z,96967.41
2023-05-09T18:00:22.588Z,96955.31
2023-05-09T18:02:51.711Z,96964.25
2023-05-09T18:05:20.771Z,96962.63
2023-05-09T18:07:49.614Z,96956.06
2023-05-09T18:10:18.237Z,96952.09
2023-05-09T18:12:48.345Z,96951.97
2023-05-09T18:15:16.816Z,96945.88
2023-05-09T18:17:48.426Z,96948.06
2023-05-09T18:20:17.121Z,96948.75
2023-05-09T18:22:45.833Z,96940.78
2023-05-09T18:25:14.356Z,96952.84
2023-05-09T18:27:42.698Z,96948.03
2023-05-09T18:30:13.812Z,96945.41
2023-05-09T18:32:42.574Z,96951.09
2023-05-09T18:35:11.185Z,96947.59
2023-05-09T18:37:42.487Z,96948.41
2023-05-09T18:40:15.345Z,96941.22
2023-05-09T18:42:44.314Z,96943.34
2023-05-09T18:45:15.918Z,96936.19
2023-05-09T18:47:44.477Z,96938.28
2023-05-09T18:50:14.709Z,96932.78
2023-05-09T18:52:44.524Z,96934.72
2023-05-09T18:55:13.156Z,96931.91
2023-05-09T18:57:41.645Z,96933.63
2023-05-09T19:00:12.476Z,96928.56
2023-05-09T19:02:45.074Z,96929.25
2023-05-09T19:05:13.464Z,96930.38
2023-05-09T19:07:41.885Z,96926.50
2023-05-09T19:10:11.624Z,96934.56
2023-05-09T19:12:40.114Z,96930.28
2023-05-09T19:15:10.436Z,96926.38
2023-05-09T19:17:42.127Z,96927.50
2023-05-09T19:20:14.256Z,96916.00
2023-05-09T19:22:46.316Z,96925.94
2023-05-09T19:25:14.705Z,96924.75
2023-05-09T19:27:43.181Z,96913.38
2023-05-09T19:30:15.336Z,96917.94
2023-05-09T19:32:44.127Z,96921.91
2023-05-09T19:35:13.998Z,96921.09
2023-05-09T19:37:42.545Z,96916.72
2023-05-09T19:40:11.949Z,96917.00
2023-05-09T19:42:41.950Z,96907.47
2023-05-09T19:45:11.690Z,96917.44
2023-05-09T19:47:40.148Z,96913.53
2023-05-09T19:50:09.925Z,96912.94
2023-05-09T19:52:39.794Z,96920.19
2023-05-09T19:55:09.385Z,96917.94
2023-05-09T19:57:37.982Z,96906.56
2023-05-09T20:00:08.096Z,96912.19
2023-05-09T20:02:36.549Z,96910.59
2023-05-09T20:05:05.338Z,96913.38
2023-05-09T20:07:33.674Z,96919.78
2023-05-09T20:10:03.401Z,96919.00
2023-05-09T20:12:31.980Z,96911.16
2023-05-09T20:15:03.397Z,96915.13
2023-05-09T20:17:31.808Z,96907.50
2023-05-09T20:20:00.147Z,96901.50
2023-05-09T20:22:28.640Z,96901.94
2023-05-09T20:24:59.942Z,96903.84
2023-05-09T20:27:29.645Z,96908.19
2023-05-09T20:29:57.961Z,96908.41
2023-05-09T20:32:26.727Z,96905.16
2023-05-09T20:35:00.064Z,96904.75
2023-05-09T20:37:28.348Z,96904.97
2023-05-09T20:39:56.795Z,96905.81
2023-05-09T20:42:25.740Z,96906.63
2023-05-09T20:45:01.021Z,96899.00
2023-05-09T20:47:29.373Z,96908.09
2023-05-09T20:49:58.482Z,96899.44
2023-05-09T20:52:27.025Z,96899.44
2023-05-09T20:54:59.210Z,96903.38
2023-05-09T20:57:27.566Z,96903.38
2023-05-09T20:59:57.239Z,96895.56
2023-05-09T21:02:25.749Z,96907.56
2023-05-09T21:04:56.744Z,96895.59
2023-05-09T21:07:25.046Z,96897.91
2023-05-09T21:09:54.154Z,96900.00
2023-05-09T21:12:22.485Z,96898.56
2023-05-09T21:14:51.097Z,96895.50
2023-05-09T21:17:21.120Z,96890.97
2023-05-09T21:19:51.585Z,96894.94
2023-05-09T21:22:20.054Z,96891.06
2023-05-09T21:24:48.354Z,96894.41
2023-05-09T21:27:16.680Z,96896.66
2023-05-09T21:29:49.069Z,96897.09
2023-05-09T21:32:17.735Z,96902.88
2023-05-09T21:34:54.722Z,96893.63
2023-05-09T21:39:51.119Z,96891.19
2023-05-09T21:42:19.444Z,96880.66
2023-05-09T21:44:47.743Z,96885.06
2023-05-09T21:47:18.660Z,96897.06
2023-05-09T21:49:48.424Z,96894.19
2023-05-09T21:52:18.388Z,96895.44
2023-05-09T21:54:46.796Z,96891.31
2023-05-09T21:57:18.151Z,96897.94
2023-05-09T21:59:46.450Z,96898.38
2023-05-09T22:02:14.920Z,96893.44
2023-05-09T22:04:46.064Z,96891.78
2023-05-09T22:07:15.722Z,96891.16
2023-05-09T22:09:44.087Z,96890.38
2023-05-09T22:12:12.464Z,96893.88
2023-05-09T22:14:52.689Z,96886.25
2023-05-09T22:17:29.104Z,96878.84
2023-05-09T22:19:57.414Z,96873.31
2023-05-09T22:22:27.999Z,96885.69
2023-05-09T22:24:56.317Z,96880.13
2023-05-09T22:27:24.659Z,96884.91
2023-05-09T22:29:53.026Z,96881.81
2023-05-09T22:32:21.305Z,96883.03
2023-05-09T22:34:54.375Z,96881.59
2023-05-09T22:37:22.729Z,96886.34
2023-05-09T22:39:52.408Z,96899.97
2023-05-09T22:42:20.703Z,96946.41
2023-05-09T22:44:54.649Z,96991.16
2023-05-09T22:47:22.968Z,96980.06
2023-05-09T22:49:51.948Z,96932.00
2023-05-09T22:52:20.655Z,96982.53
2023-05-09T22:54:48.930Z,96996.34
2023-05-09T22:57:23.216Z,96944.19
2023-05-09T22:59:51.622Z,96995.34
2023-05-09T23:02:19.958Z,96969.56
2023-05-09T23:04:48.270Z,96990.16
2023-05-09T23:07:16.622Z,96986.91
2023-05-09T23:09:44.946Z,96953.25
2023-05-09T23:12:13.280Z,96991.41
2023-05-09T23:14:42.937Z,96962.56
2023-05-09T23:17:11.338Z,96962.75
2023-05-09T23:19:42.572Z,96966.28
2023-05-09T23:22:11.451Z,96956.81
2023-05-09T23:24:39.757Z,96954.53
2023-05-09T23:27:08.038Z,96944.03
2023-05-09T23:29:36.301Z,96938.88
2023-05-09T23:32:06.454Z,96932.06
2023-05-09T23:34:36.234Z,96924.22
2023-05-09T23:37:04.764Z,96935.16
2023-05-09T23:39:33.127Z,96924.84
2023-05-09T23:42:01.477Z,96917.84
2023-05-09T23:44:30.146Z,96910.22
2023-05-09T23:47:01.907Z,96917.63
2023-05-09T23:49:31.800Z,96920.50
2023-05-09T23:52:00.136Z,96920.13
2023-05-09T23:54:28.676Z,96909.59
2023-05-09T23:56:58.072Z,96909.16
2023-05-09T23:59:26.390Z,96908.56
